Time;durP1;ratioP1;P1;durP2;ratioP2;P2;SDS_P1;SDS_P2;PMS_P1;PMS_P2;Temp;Humidity;BMP_temperature;BMP_pressure;BME280_temperature;BME280_humidity;BME280_pressure;Samples;Min_cycle;Max_cycle;Signal;HPM_P1;HPM_P2
2022/07/28 00:00:04;;;;;;;3.05;0.85;;;12.00;99.90;;;;;;5011324;28;20044;-70
2022/07/28 00:02:30;;;;;;;5.82;0.85;;;12.00;99.90;;;;;;5011234;28;20041;-72
2022/07/28 00:04:55;;;;;;;4.10;1.02;;;12.00;99.90;;;;;;5013311;28;20048;-69
2022/07/28 00:07:21;;;;;;;2.92;1.00;;;11.90;99.90;;;;;;5012437;28;20037;-69
2022/07/28 00:09:47;;;;;;;5.82;1.10;;;11.90;99.90;;;;;;5014146;28;20464;-71
2022/07/28 00:12:13;;;;;;;4.13;0.90;;;11.90;99.90;;;;;;5007061;28;20504;-70
2022/07/28 00:14:39;;;;;;;3.40;1.08;;;11.80;99.90;;;;;;5012097;28;20477;-70
2022/07/28 00:17:04;;;;;;;6.50;1.10;;;11.80;99.90;;;;;;5013385;28;20095;-70
2022/07/28 00:19:30;;;;;;;4.45;1.25;;;11.80;99.90;;;;;;5011717;28;20452;-69
2022/07/28 00:21:56;;;;;;;4.90;1.35;;;11.90;99.90;;;;;;5014712;28;20037;-69
2022/07/28 00:24:23;;;;;;;7.10;1.30;;;11.80;99.90;;;;;;5011240;28;20048;-69
2022/07/28 00:26:48;;;;;;;5.10;1.40;;;11.90;99.90;;;;;;5010549;28;20464;-70
2022/07/28 00:29:14;;;;;;;4.55;1.48;;;11.90;99.90;;;;;;5011965;28;20041;-70
2022/07/28 00:31:46;;;;;;;5.50;1.70;;;11.90;99.90;;;;;;5011032;28;20088;-72
2022/07/28 00:34:11;;;;;;;6.70;1.40;;;11.90;99.90;;;;;;5012109;28;20124;-69
2022/07/28 00:36:37;;;;;;;5.38;1.20;;;11.80;99.90;;;;;;5011047;28;20099;-69
2022/07/28 00:39:03;;;;;;;3.55;1.08;;;11.80;99.90;;;;;;5011169;28;20037;-70
2022/07/28 00:41:29;;;;;;;4.18;0.98;;;11.80;99.90;;;;;;5014535;28;20137;-71
2022/07/28 00:43:54;;;;;;;5.68;1.70;;;11.70;99.90;;;;;;5013229;28;20045;-71
2022/07/28 00:46:21;;;;;;;5.25;1.50;;;11.60;99.90;;;;;;5008324;28;20091;-71
2022/07/28 00:48:49;;;;;;;3.97;1.15;;;11.60;99.90;;;;;;5029385;28;20041;-69
2022/07/28 00:51:16;;;;;;;4.68;1.05;;;11.50;99.90;;;;;;5027163;28;20171;-72
2022/07/28 00:53:43;;;;;;;6.28;1.40;;;11.50;99.90;;;;;;5014520;28;20643;-70
2022/07/28 00:56:09;;;;;;;3.45;1.10;;;11.50;99.90;;;;;;5014649;28;20135;-68
2022/07/28 00:58:36;;;;;;;3.72;0.90;;;11.50;99.90;;;;;;5016664;28;20133;-70
2022/07/28 01:01:06;;;;;;;4.82;1.30;;;11.60;99.90;;;;;;5012850;28;20519;-69
2022/07/28 01:03:35;;;;;;;4.13;1.00;;;11.70;99.90;;;;;;5030053;28;20045;-70
2022/07/28 01:06:18;;;;;;;4.75;0.70;;;11.70;99.90;;;;;;5018997;28;20683;-69
2022/07/28 01:09:11;;;;;;;3.20;0.85;;;11.80;99.90;;;;;;5014062;28;20044;-70
2022/07/28 01:11:36;;;;;;;5.00;1.13;;;11.90;99.90;;;;;;5025043;28;20708;-70
2022/07/28 01:14:24;;;;;;;5.22;0.93;;;11.90;99.90;;;;;;5014513;28;20140;-70
2022/07/28 01:17:05;;;;;;;4.38;0.85;;;12.00;99.90;;;;;;5016161;28;20128;-72
2022/07/28 01:19:56;;;;;;;4.72;0.70;;;12.00;99.90;;;;;;5015210;28;20032;-70
2022/07/28 01:22:28;;;;;;;8.23;1.17;;;12.10;99.90;;;;;;5014915;28;20045;-69
2022/07/28 01:25:13;;;;;;;3.85;1.10;;;12.10;99.90;;;;;;5017546;28;20040;-69
2022/07/28 01:27:56;;;;;;;3.35;1.00;;;12.10;99.90;;;;;;5016931;28;20084;-71
2022/07/28 01:30:28;;;;;;;5.97;1.23;;;12.20;99.90;;;;;;5016262;28;20044;-70
2022/07/28 01:33:01;;;;;;;6.75;1.25;;;12.30;99.90;;;;;;5025592;28;20053;-72
2022/07/28 01:35:31;;;;;;;4.80;1.30;;;12.30;99.90;;;;;;5015007;28;21168;-70
2022/07/28 01:38:02;;;;;;;4.35;1.13;;;12.40;99.90;;;;;;5016310;28;20060;-71
2022/07/28 01:40:32;;;;;;;4.35;1.52;;;12.40;99.90;;;;;;5014116;28;20048;-70
2022/07/28 01:43:01;;;;;;;5.40;1.45;;;12.50;99.90;;;;;;5013673;28;21363;-69
2022/07/28 01:45:28;;;;;;;3.65;1.67;;;12.50;99.90;;;;;;5027941;28;20122;-70
2022/07/28 01:47:58;;;;;;;9.48;1.40;;;12.60;99.90;;;;;;5016284;28;20752;-71
2022/07/28 01:50:26;;;;;;;4.45;1.38;;;12.60;99.90;;;;;;5012566;28;21419;-70
2022/07/28 01:52:54;;;;;;;5.30;1.38;;;12.60;99.90;;;;;;5012608;28;20046;-69
2022/07/28 01:55:21;;;;;;;4.95;1.73;;;12.70;99.90;;;;;;5014171;28;21069;-69
2022/07/28 01:57:49;;;;;;;7.57;1.02;;;12.70;99.90;;;;;;5013054;28;20049;-72
2022/07/28 02:00:16;;;;;;;4.82;1.10;;;12.70;99.90;;;;;;5013768;28;20052;-70
2022/07/28 02:02:44;;;;;;;6.07;1.17;;;12.80;99.90;;;;;;5015703;28;20098;-70
2022/07/28 02:05:14;;;;;;;6.30;1.05;;;12.80;99.90;;;;;;4998120;28;20091;-69
2022/07/28 02:07:42;;;;;;;2.10;1.05;;;12.90;99.90;;;;;;5018693;28;20839;-71
2022/07/28 02:10:11;;;;;;;7.00;1.33;;;12.90;99.90;;;;;;5030971;28;20136;-71
2022/07/28 02:12:39;;;;;;;6.70;1.38;;;12.90;99.90;;;;;;5025217;28;20053;-71
2022/07/28 02:15:10;;;;;;;5.45;1.08;;;12.90;99.90;;;;;;5016138;28;20136;-72
2022/07/28 02:17:37;;;;;;;5.25;0.85;;;12.90;99.90;;;;;;5026715;28;20140;-69
2022/07/28 02:20:07;;;;;;;5.40;1.20;;;12.90;99.90;;;;;;5017689;28;20108;-70
2022/07/28 02:22:33;;;;;;;4.70;1.13;;;12.80;99.90;;;;;;5014186;28;20060;-70
2022/07/28 02:24:59;;;;;;;2.72;0.90;;;12.70;99.90;;;;;;5014732;28;20049;-72
2022/07/28 02:27:28;;;;;;;5.15;1.10;;;12.70;99.90;;;;;;5015317;28;20053;-69
2022/07/28 02:30:13;;;;;;;5.05;0.80;;;12.70;99.90;;;;;;5028572;28;20389;-71
2022/07/28 02:32:55;;;;;;;6.85;1.10;;;12.70;99.90;;;;;;5025722;28;20678;-71
2022/07/28 02:35:55;;;;;;;5.13;0.80;;;12.70;99.90;;;;;;5014165;28;20045;-70
2022/07/28 02:38:24;;;;;;;3.42;0.90;;;12.70;99.90;;;;;;5019675;28;21188;-71
2022/07/28 02:40:54;;;;;;;4.32;1.00;;;12.80;99.90;;;;;;5015075;28;20187;-70
2022/07/28 02:43:28;;;;;;;3.95;1.05;;;12.80;99.90;;;;;;5017940;28;20508;-68
2022/07/28 02:45:57;;;;;;;6.70;1.05;;;12.90;99.90;;;;;;5015074;28;20130;-70
2022/07/28 02:48:28;;;;;;;5.70;1.15;;;13.00;99.90;;;;;;5014355;28;20450;-70
2022/07/28 02:50:56;;;;;;;5.30;1.00;;;12.90;99.90;;;;;;5013573;28;20044;-70
2022/07/28 02:53:23;;;;;;;5.40;1.10;;;13.00;99.90;;;;;;5015046;28;20132;-70
2022/07/28 02:55:49;;;;;;;3.80;1.13;;;13.00;99.90;;;;;;5016146;28;20045;-72
2022/07/28 02:58:23;;;;;;;2.38;1.02;;;13.10;99.90;;;;;;5011348;28;20037;-70
2022/07/28 03:00:50;;;;;;;3.25;1.50;;;13.10;99.90;;;;;;5015008;28;20694;-70
2022/07/28 03:03:20;;;;;;;4.38;1.15;;;13.10;99.90;;;;;;5013581;28;20302;-70
2022/07/28 03:05:47;;;;;;;4.60;1.05;;;13.20;99.90;;;;;;5016828;28;20104;-69
2022/07/28 03:08:15;;;;;;;5.20;1.38;;;13.20;99.90;;;;;;5013106;28;20136;-70
2022/07/28 03:10:40;;;;;;;6.38;1.10;;;13.20;99.90;;;;;;5029085;28;20052;-69
2022/07/28 03:13:07;;;;;;;5.28;1.02;;;13.20;99.90;;;;;;5015079;28;20053;-70
2022/07/28 03:15:34;;;;;;;3.40;0.93;;;13.20;99.90;;;;;;5013093;28;20053;-70
2022/07/28 03:18:01;;;;;;;5.53;1.45;;;13.30;99.90;;;;;;5012302;28;20037;-71
2022/07/28 03:20:27;;;;;;;4.47;1.10;;;13.30;99.90;;;;;;5012397;28;20445;-70
2022/07/28 03:22:52;;;;;;;2.33;1.92;;;13.30;99.90;;;;;;5012871;28;20053;-70
2022/07/28 03:25:31;;;;;;;3.70;2.30;;;13.20;99.90;;;;;;5012420;28;20499;-71
2022/07/28 03:27:59;;;;;;;3.83;2.03;;;13.10;99.90;;;;;;5013215;28;20133;-70
2022/07/28 03:30:33;;;;;;;4.97;1.90;;;13.00;99.90;;;;;;5015372;28;20426;-69
2022/07/28 03:33:01;;;;;;;7.78;2.00;;;12.90;99.90;;;;;;5013233;28;20919;-69
2022/07/28 03:35:30;;;;;;;3.35;1.70;;;12.80;99.90;;;;;;5010679;28;20045;-70
2022/07/28 03:38:13;;;;;;;4.22;2.35;;;12.80;99.90;;;;;;5012101;28;20718;-71
2022/07/28 03:40:40;;;;;;;9.75;2.45;;;12.80;99.90;;;;;;5011489;28;20045;-70
2022/07/28 03:43:09;;;;;;;8.77;4.18;;;12.80;99.90;;;;;;5012103;28;20056;-70
2022/07/28 03:45:37;;;;;;;5.18;2.45;;;12.80;99.90;;;;;;5012549;28;20312;-70
2022/07/28 03:48:03;;;;;;;7.40;2.10;;;12.80;99.90;;;;;;5012444;28;20052;-69
2022/07/28 03:50:33;;;;;;;5.00;1.50;;;12.90;99.90;;;;;;5011044;28;20045;-70
2022/07/28 03:53:03;;;;;;;3.05;1.38;;;12.90;99.90;;;;;;5027324;28;20104;-70
2022/07/28 03:55:29;;;;;;;6.78;1.38;;;12.90;99.90;;;;;;5012408;28;20970;-69
2022/07/28 03:57:56;;;;;;;4.18;1.00;;;12.90;99.90;;;;;;5011828;28;20091;-70
2022/07/28 04:00:24;;;;;;;4.88;0.98;;;13.00;99.90;;;;;;5013036;28;20045;-71
2022/07/28 04:02:50;;;;;;;5.35;1.23;;;13.00;99.90;;;;;;5011170;28;20121;-70
2022/07/28 04:05:17;;;;;;;3.80;1.08;;;13.00;99.90;;;;;;5014382;28;20658;-72
2022/07/28 04:07:45;;;;;;;5.68;1.23;;;13.00;99.90;;;;;;5010998;28;20944;-71
2022/07/28 04:10:15;;;;;;;4.43;0.90;;;13.00;99.90;;;;;;5017338;28;20049;-68
2022/07/28 04:12:53;;;;;;;4.40;1.10;;;13.10;99.90;;;;;;5013758;28;20053;-69
2022/07/28 04:15:20;;;;;;;4.45;1.17;;;13.10;99.90;;;;;;5014125;28;20043;-70
2022/07/28 04:17:48;;;;;;;6.88;1.17;;;13.10;99.90;;;;;;5017009;28;20439;-69
2022/07/28 04:20:17;;;;;;;4.90;1.40;;;13.20;99.90;;;;;;5014799;28;20588;-72
2022/07/28 04:22:44;;;;;;;3.40;1.38;;;13.20;99.90;;;;;;5018544;28;20048;-70
2022/07/28 04:25:13;;;;;;;5.75;1.50;;;13.20;99.90;;;;;;5018569;28;20228;-69
2022/07/28 04:27:40;;;;;;;7.50;1.60;;;13.20;99.90;;;;;;5017101;28;20059;-70
2022/07/28 04:30:17;;;;;;;3.83;0.82;;;13.10;99.90;;;;;;5018279;28;20049;-71
2022/07/28 04:32:45;;;;;;;4.57;1.20;;;13.10;99.90;;;;;;5017361;28;20045;-70
2022/07/28 04:35:12;;;;;;;2.75;1.20;;;13.20;99.90;;;;;;5018799;28;20464;-69
2022/07/28 04:37:38;;;;;;;4.72;1.20;;;13.20;99.90;;;;;;5016753;28;20057;-73
2022/07/28 04:40:09;;;;;;;6.57;1.85;;;13.20;99.90;;;;;;5016704;28;20033;-72
2022/07/28 04:42:37;;;;;;;2.70;0.95;;;13.20;99.90;;;;;;5016152;28;20037;-71
2022/07/28 04:45:03;;;;;;;5.03;1.23;;;13.30;99.90;;;;;;5017214;28;20561;-70
2022/07/28 04:47:29;;;;;;;4.28;1.20;;;13.30;99.90;;;;;;5018662;28;20052;-69
2022/07/28 04:49:55;;;;;;;6.82;1.10;;;13.30;99.90;;;;;;5018719;28;20048;-71
2022/07/28 04:52:21;;;;;;;5.93;1.30;;;13.40;99.90;;;;;;5017161;28;20294;-69
2022/07/28 04:54:47;;;;;;;5.60;1.27;;;13.40;99.90;;;;;;5017661;28;20146;-72
2022/07/28 04:57:13;;;;;;;3.10;1.10;;;13.50;99.90;;;;;;5014331;28;20055;-70
2022/07/28 04:59:39;;;;;;;5.18;1.48;;;13.50;99.90;;;;;;5017626;28;20148;-69
2022/07/28 05:02:05;;;;;;;3.70;1.10;;;13.60;99.90;;;;;;5019584;28;20049;-73
2022/07/28 05:04:31;;;;;;;5.22;1.75;;;13.60;99.90;;;;;;5020562;28;20052;-74
2022/07/28 05:06:57;;;;;;;8.05;1.38;;;13.60;99.90;;;;;;5020832;28;20491;-72
2022/07/28 05:09:23;;;;;;;6.18;1.65;;;13.60;99.90;;;;;;5020755;28;20048;-70
2022/07/28 05:11:49;;;;;;;6.90;1.45;;;13.60;99.90;;;;;;5017652;28;20115;-70
2022/07/28 05:14:16;;;;;;;3.75;1.17;;;13.70;99.90;;;;;;5016965;28;20108;-70
2022/07/28 05:16:42;;;;;;;8.77;1.38;;;13.70;99.90;;;;;;5016747;28;20053;-70
2022/07/28 05:19:08;;;;;;;3.83;1.42;;;13.70;99.90;;;;;;5029269;28;20049;-69
2022/07/28 05:21:33;;;;;;;6.65;1.38;;;13.70;99.90;;;;;;5015783;28;20053;-69
2022/07/28 05:23:59;;;;;;;4.15;1.30;;;13.70;99.90;;;;;;5020835;28;20033;-70
2022/07/28 05:26:27;;;;;;;7.85;1.42;;;13.70;99.90;;;;;;5018969;28;20075;-69
2022/07/28 05:28:53;;;;;;;4.97;1.80;;;13.70;99.90;;;;;;5017515;28;20042;-69
2022/07/28 05:31:19;;;;;;;3.67;1.65;;;13.70;99.90;;;;;;5016768;28;20045;-73
2022/07/28 05:33:45;;;;;;;5.05;1.80;;;13.70;99.90;;;;;;5015538;28;20095;-69
2022/07/28 05:36:11;;;;;;;4.25;1.92;;;13.60;99.90;;;;;;5016589;28;20120;-70
2022/07/28 05:38:36;;;;;;;4.63;2.13;;;13.60;99.90;;;;;;5012877;28;20033;-69
2022/07/28 05:41:02;;;;;;;5.93;2.20;;;13.60;99.90;;;;;;5014183;28;20405;-71
2022/07/28 05:43:28;;;;;;;4.70;2.00;;;13.60;99.90;;;;;;5013786;28;20800;-69
2022/07/28 05:45:54;;;;;;;5.70;2.10;;;13.60;99.90;;;;;;5018918;28;20048;-71
2022/07/28 05:48:20;;;;;;;8.40;2.20;;;13.60;99.90;;;;;;5016837;28;20452;-70
2022/07/28 05:50:48;;;;;;;3.83;1.85;;;13.70;99.90;;;;;;5013843;28;20052;-70
2022/07/28 05:53:13;;;;;;;4.55;1.33;;;13.80;99.90;;;;;;5013469;28;20859;-69
2022/07/28 05:55:39;;;;;;;4.53;1.67;;;13.90;99.90;;;;;;5017782;28;20082;-73
2022/07/28 05:58:05;;;;;;;5.35;1.17;;;13.90;99.90;;;;;;5023953;28;20633;-69
2022/07/28 06:00:32;;;;;;;4.65;1.17;;;14.00;99.90;;;;;;5014313;28;20064;-70
2022/07/28 06:03:00;;;;;;;3.20;1.02;;;14.00;99.90;;;;;;5028470;28;20603;-70
2022/07/28 06:05:28;;;;;;;5.72;1.48;;;14.10;99.90;;;;;;5015162;28;20055;-69
2022/07/28 06:07:54;;;;;;;6.22;2.10;;;14.10;99.90;;;;;;5024470;28;20052;-69
2022/07/28 06:10:22;;;;;;;4.40;1.55;;;14.10;99.90;;;;;;5012669;28;20148;-70
2022/07/28 06:12:50;;;;;;;6.15;1.27;;;14.10;99.90;;;;;;5012126;28;20588;-69
2022/07/28 06:15:21;;;;;;;6.53;1.00;;;14.10;99.90;;;;;;5015521;28;20095;-69
2022/07/28 06:17:51;;;;;;;6.95;1.05;;;14.10;99.90;;;;;;5012808;28;20046;-69
2022/07/28 06:20:18;;;;;;;1.83;0.60;;;14.20;99.90;;;;;;5012070;28;20609;-70
2022/07/28 06:22:46;;;;;;;5.57;0.50;;;14.30;99.90;;;;;;5016124;28;20138;-70
2022/07/28 06:25:21;;;;;;;3.78;0.47;;;14.40;99.90;;;;;;5013213;28;20095;-69
2022/07/28 06:27:48;;;;;;;3.00;0.20;;;14.50;99.90;;;;;;5014215;28;20041;-69
2022/07/28 06:30:15;;;;;;;3.53;0.30;;;14.60;99.90;;;;;;5014502;28;20045;-73
2022/07/28 06:32:41;;;;;;;2.22;0.30;;;14.50;99.90;;;;;;5013463;28;20638;-70
2022/07/28 06:35:07;;;;;;;3.25;0.30;;;14.60;99.90;;;;;;5012030;28;20386;-70
2022/07/28 06:37:33;;;;;;;2.33;0.30;;;14.60;99.90;;;;;;4996707;28;20118;-71
2022/07/28 06:39:59;;;;;;;1.63;0.30;;;14.60;99.90;;;;;;5017364;28;20029;-70
2022/07/28 06:42:25;;;;;;;2.17;0.20;;;14.60;99.90;;;;;;5012714;28;20040;-70
2022/07/28 06:44:51;;;;;;;2.30;0.30;;;14.60;99.90;;;;;;5012618;28;20091;-71
2022/07/28 06:47:17;;;;;;;4.78;0.22;;;14.70;99.90;;;;;;5014560;28;20045;-70
2022/07/28 06:49:43;;;;;;;2.53;0.20;;;14.70;99.90;;;;;;5013871;28;20033;-72
2022/07/28 06:52:09;;;;;;;2.22;0.20;;;14.70;99.90;;;;;;5015747;28;20055;-70
2022/07/28 06:54:34;;;;;;;2.05;0.40;;;14.80;99.90;;;;;;5013052;28;20701;-68
2022/07/28 06:57:00;;;;;;;2.35;0.30;;;14.80;99.90;;;;;;5011186;28;20589;-68
2022/07/28 06:59:26;;;;;;;2.20;0.30;;;14.90;99.90;;;;;;5013959;28;20111;-70
2022/07/28 07:01:52;;;;;;;4.72;0.40;;;15.00;99.90;;;;;;5012405;28;20045;-69
2022/07/28 07:04:17;;;;;;;1.55;0.20;;;15.10;99.90;;;;;;5012101;28;20053;-71
2022/07/28 07:06:43;;;;;;;1.98;0.22;;;15.20;99.90;;;;;;5023096;28;20053;-72
2022/07/28 07:09:09;;;;;;;5.35;0.40;;;15.20;99.90;;;;;;5013597;28;20663;-69
2022/07/28 07:11:37;;;;;;;1.92;0.20;;;15.40;99.90;;;;;;5012307;28;20814;-70
2022/07/28 07:14:03;;;;;;;2.45;0.20;;;15.50;99.90;;;;;;5012593;28;20923;-71
2022/07/28 07:16:29;;;;;;;3.70;0.47;;;15.60;99.90;;;;;;5012325;28;20060;-73
2022/07/28 07:18:54;;;;;;;1.80;0.20;;;15.60;99.90;;;;;;5000557;28;20107;-71
2022/07/28 07:21:20;;;;;;;2.10;0.20;;;15.70;99.90;;;;;;5011196;28;20033;-70
2022/07/28 07:23:46;;;;;;;1.10;0.20;;;15.80;99.90;;;;;;5010820;28;20673;-71
2022/07/28 07:26:12;;;;;;;1.77;0.20;;;15.90;99.90;;;;;;5011357;28;20057;-70
2022/07/28 07:28:39;;;;;;;1.45;0.20;;;16.00;99.90;;;;;;5010636;28;20050;-70
2022/07/28 07:31:04;;;;;;;2.47;0.20;;;16.20;99.90;;;;;;5015089;28;20158;-70
2022/07/28 07:33:30;;;;;;;2.55;0.30;;;16.30;99.90;;;;;;5012216;28;20120;-70
2022/07/28 07:35:56;;;;;;;1.77;0.20;;;16.40;99.90;;;;;;5012176;28;20044;-69
2022/07/28 07:38:21;;;;;;;1.05;0.20;;;16.50;99.90;;;;;;5013794;28;20041;-69
2022/07/28 07:40:47;;;;;;;2.92;0.30;;;16.70;99.90;;;;;;4996591;28;20065;-69
2022/07/28 07:43:13;;;;;;;3.83;0.30;;;16.80;99.90;;;;;;5014019;28;20155;-71
2022/07/28 07:45:40;;;;;;;1.05;0.20;;;16.90;99.90;;;;;;5013595;28;20037;-70
2022/07/28 07:48:06;;;;;;;3.10;0.20;;;17.00;99.90;;;;;;5010505;28;20041;-72
2022/07/28 07:50:31;;;;;;;1.95;0.30;;;17.10;99.90;;;;;;5012632;28;20041;-69
2022/07/28 07:52:57;;;;;;;4.30;0.28;;;17.10;99.90;;;;;;5011190;28;20759;-71
2022/07/28 07:55:23;;;;;;;2.28;0.20;;;17.20;99.90;;;;;;5012859;28;20041;-70
2022/07/28 07:57:49;;;;;;;2.35;0.20;;;17.30;99.90;;;;;;5011831;28;21114;-70
2022/07/28 08:00:15;;;;;;;2.33;0.10;;;17.50;99.90;;;;;;5012646;28;20047;-70
2022/07/28 08:02:41;;;;;;;1.85;0.25;;;17.70;99.90;;;;;;5015562;28;20867;-72
2022/07/28 08:05:07;;;;;;;1.73;0.20;;;17.70;99.90;;;;;;5011707;28;20049;-71
2022/07/28 08:07:34;;;;;;;3.33;0.25;;;17.80;99.90;;;;;;5011871;28;20131;-72
2022/07/28 08:10:00;;;;;;;1.35;0.20;;;17.90;99.90;;;;;;5011159;28;20573;-71
2022/07/28 08:12:26;;;;;;;1.40;0.10;;;18.00;99.90;;;;;;5009267;28;20095;-70
2022/07/28 08:14:53;;;;;;;4.25;0.20;;;18.20;99.90;;;;;;5016302;28;20029;-69
2022/07/28 08:17:19;;;;;;;1.40;0.20;;;18.30;99.90;;;;;;5012022;28;20140;-70
2022/07/28 08:19:45;;;;;;;2.58;0.20;;;18.40;99.90;;;;;;5012213;28;20053;-71
2022/07/28 08:22:11;;;;;;;1.10;0.20;;;18.60;99.90;;;;;;5012697;28;20048;-69
2022/07/28 08:24:36;;;;;;;1.05;0.30;;;18.70;99.90;;;;;;5014635;28;20709;-68
2022/07/28 08:27:03;;;;;;;1.58;0.15;;;18.80;99.90;;;;;;5011227;28;20056;-68
2022/07/28 08:29:29;;;;;;;2.92;0.20;;;19.10;99.90;;;;;;5015451;28;20579;-71
2022/07/28 08:31:55;;;;;;;3.30;0.35;;;19.30;99.90;;;;;;5013032;28;20057;-69
2022/07/28 08:34:21;;;;;;;5.32;0.30;;;19.80;99.90;;;;;;5012365;28;20052;-70
2022/07/28 08:36:46;;;;;;;2.28;0.20;;;20.60;99.90;;;;;;5013356;28;20037;-71
2022/07/28 08:39:12;;;;;;;2.55;0.20;;;21.30;99.90;;;;;;5011101;28;20041;-70
2022/07/28 08:41:45;;;;;;;2.40;0.10;;;21.90;99.90;;;;;;5010506;28;20083;-71
2022/07/28 08:44:17;;;;;;;3.25;0.20;;;22.00;99.90;;;;;;5023341;28;20873;-71
2022/07/28 08:46:44;;;;;;;2.58;0.20;;;21.90;99.90;;;;;;5010278;28;20053;-70
2022/07/28 08:49:13;;;;;;;4.95;0.28;;;21.60;99.90;;;;;;5014606;28;20049;-70
2022/07/28 08:51:40;;;;;;;1.38;0.20;;;21.40;99.90;;;;;;5011231;28;20033;-70
2022/07/28 08:54:08;;;;;;;3.17;0.10;;;21.20;99.90;;;;;;5011130;28;20685;-69
2022/07/28 08:56:38;;;;;;;2.22;0.20;;;20.90;99.90;;;;;;5012818;28;20072;-70
2022/07/28 08:59:04;;;;;;;2.25;0.20;;;20.90;99.90;;;;;;5009319;28;20120;-70
2022/07/28 09:01:30;;;;;;;1.83;0.13;;;20.60;99.90;;;;;;5011381;28;20360;-69
2022/07/28 09:03:56;;;;;;;2.45;0.10;;;20.60;99.90;;;;;;5017095;28;20733;-69
2022/07/28 09:06:23;;;;;;;2.42;0.20;;;20.70;99.90;;;;;;5012453;28;20546;-70
2022/07/28 09:08:49;;;;;;;2.45;0.20;;;20.60;99.90;;;;;;5016743;28;20654;-71
2022/07/28 09:11:15;;;;;;;1.27;0.20;;;20.60;99.90;;;;;;5029522;28;20429;-71
2022/07/28 09:13:41;;;;;;;1.92;0.38;;;20.80;99.90;;;;;;5029949;28;20100;-69
2022/07/28 09:16:06;;;;;;;2.90;0.30;;;20.70;99.90;;;;;;5016636;28;20040;-72
2022/07/28 09:18:32;;;;;;;2.88;0.20;;;20.80;99.90;;;;;;5031757;28;20045;-70
2022/07/28 09:20:58;;;;;;;1.50;0.20;;;20.70;99.90;;;;;;5017649;28;20435;-70
2022/07/28 09:23:23;;;;;;;2.13;0.20;;;20.80;99.90;;;;;;5018112;28;20033;-70
2022/07/28 09:25:49;;;;;;;2.05;0.30;;;20.90;99.90;;;;;;5032095;28;20670;-70
2022/07/28 09:28:17;;;;;;;4.35;0.17;;;21.20;99.90;;;;;;5030348;28;20353;-69
2022/07/28 09:30:45;;;;;;;1.88;0.20;;;21.20;99.90;;;;;;5031637;28;20471;-70
2022/07/28 09:33:22;;;;;;;1.20;0.20;;;21.30;99.90;;;;;;5024150;28;21103;-69
2022/07/28 09:35:53;;;;;;;2.90;0.20;;;21.20;99.90;;;;;;5012822;28;20049;-70
2022/07/28 09:38:22;;;;;;;3.97;0.10;;;21.10;99.90;;;;;;5030434;28;20048;-68
2022/07/28 09:41:06;;;;;;;1.05;0.10;;;21.00;99.90;;;;;;5015240;28;20100;-70
2022/07/28 09:43:42;;;;;;;1.30;0.10;;;20.80;99.90;;;;;;5027579;28;20057;-69
2022/07/28 09:46:22;;;;;;;4.03;0.13;;;20.90;99.90;;;;;;5032713;28;20091;-71
2022/07/28 09:48:47;;;;;;;1.90;0.10;;;21.00;99.90;;;;;;5031643;28;20057;-71
2022/07/28 09:51:14;;;;;;;2.42;0.20;;;20.70;99.90;;;;;;5027973;28;20098;-70
2022/07/28 09:53:40;;;;;;;4.07;0.20;;;20.50;99.90;;;;;;5013877;28;20218;-71
2022/07/28 09:56:07;;;;;;;2.25;0.20;;;20.20;99.90;;;;;;5031729;28;20115;-73
2022/07/28 09:58:33;;;;;;;2.95;0.20;;;20.10;99.90;;;;;;5024510;28;20048;-69
2022/07/28 10:01:12;;;;;;;2.55;0.20;;;19.80;99.90;;;;;;5030343;28;20045;-71
2022/07/28 10:03:44;;;;;;;2.78;0.20;;;19.60;99.90;;;;;;5031189;28;20048;-71
2022/07/28 10:06:29;;;;;;;2.22;0.20;;;19.40;99.90;;;;;;5017221;28;20507;-70
2022/07/28 10:08:58;;;;;;;2.45;0.20;;;19.20;99.90;;;;;;5030237;28;20053;-69
2022/07/28 10:11:26;;;;;;;2.03;0.20;;;19.10;99.90;;;;;;5026328;28;20057;-69
2022/07/28 10:14:01;;;;;;;4.43;0.28;;;18.90;99.90;;;;;;5012310;28;20041;-72
2022/07/28 10:16:42;;;;;;;3.25;0.20;;;18.80;99.90;;;;;;5013083;28;20555;-70
2022/07/28 10:19:07;;;;;;;2.53;0.28;;;18.50;99.90;;;;;;5011354;28;20052;-72
2022/07/28 10:21:39;;;;;;;2.05;0.10;;;18.30;99.90;;;;;;5016555;28;20045;-70
2022/07/28 10:24:06;;;;;;;1.65;0.20;;;18.20;99.90;;;;;;5022216;28;20124;-70
2022/07/28 10:26:36;;;;;;;2.33;0.20;;;18.10;99.90;;;;;;5013989;28;20136;-70
2022/07/28 10:29:07;;;;;;;4.13;0.30;;;18.10;99.90;;;;;;5013219;28;20175;-70
2022/07/28 10:31:47;;;;;;;2.28;0.30;;;18.00;99.90;;;;;;5030409;28;20068;-70
2022/07/28 10:34:36;;;;;;;2.78;0.20;;;18.00;99.90;;;;;;5020813;28;20088;-72
2022/07/28 10:37:03;;;;;;;1.50;0.20;;;18.00;99.90;;;;;;5011699;28;20060;-70
2022/07/28 10:39:40;;;;;;;1.30;0.20;;;18.00;99.90;;;;;;5015319;28;20528;-71
2022/07/28 10:42:12;;;;;;;2.97;0.20;;;18.10;99.90;;;;;;5029719;28;20049;-70
2022/07/28 10:44:40;;;;;;;2.38;0.20;;;18.10;99.90;;;;;;5017539;28;20127;-69
2022/07/28 10:47:09;;;;;;;2.25;0.20;;;18.10;99.90;;;;;;5011442;28;20426;-70
2022/07/28 10:49:36;;;;;;;3.38;0.30;;;18.10;99.90;;;;;;5015996;28;20049;-72
2022/07/28 10:52:05;;;;;;;3.90;0.20;;;18.20;99.90;;;;;;5024756;28;20052;-69
2022/07/28 10:54:36;;;;;;;1.75;0.20;;;18.30;99.90;;;;;;5010642;28;20839;-70
2022/07/28 10:57:04;;;;;;;2.15;0.30;;;18.50;99.90;;;;;;5011778;28;20719;-70
2022/07/28 10:59:47;;;;;;;2.08;0.20;;;18.60;99.90;;;;;;5019837;28;20120;-70
2022/07/28 11:02:45;;;;;;;2.67;0.20;;;18.70;99.90;;;;;;5013758;28;20053;-70
2022/07/28 11:05:30;;;;;;;2.28;0.32;;;18.90;99.90;;;;;;5030233;28;20045;-70
2022/07/28 11:07:57;;;;;;;1.77;0.13;;;19.00;99.90;;;;;;5028756;28;20081;-69
2022/07/28 11:10:23;;;;;;;1.58;0.10;;;19.30;99.90;;;;;;5011855;28;20057;-70
2022/07/28 11:12:51;;;;;;;1.35;0.10;;;19.40;99.90;;;;;;5011408;28;20045;-69
2022/07/28 11:15:29;;;;;;;3.30;0.32;;;19.50;99.90;;;;;;5029308;28;20045;-71
2022/07/28 11:18:08;;;;;;;0.95;0.20;;;19.70;99.90;;;;;;5012514;28;20895;-70
2022/07/28 11:21:07;;;;;;;2.50;0.20;;;19.80;99.90;;;;;;5026071;28;20045;-71
2022/07/28 11:23:53;;;;;;;1.75;0.10;;;20.10;99.90;;;;;;4997419;28;20524;-70
2022/07/28 11:26:22;;;;;;;1.58;0.10;;;20.40;99.90;;;;;;5013476;28;20045;-70
2022/07/28 11:29:02;;;;;;;1.50;0.10;;;20.80;99.90;;;;;;5019019;28;20052;-69
2022/07/28 11:31:43;;;;;;;3.45;0.13;;;21.20;99.90;;;;;;5014296;28;20080;-70
2022/07/28 11:34:56;;;;;;;2.47;0.20;;;21.80;99.90;;;;;;5011391;28;20037;-72
2022/07/28 11:37:22;;;;;;;2.05;0.17;;;21.80;99.90;;;;;;5022207;28;20056;-69
2022/07/28 11:39:47;;;;;;;2.35;0.20;;;22.30;99.90;;;;;;5015925;28;20053;-69
2022/07/28 11:42:28;;;;;;;1.98;0.20;;;22.90;99.60;;;;;;5016941;28;20049;-68
2022/07/28 11:44:55;;;;;;;2.35;0.20;;;23.50;97.40;;;;;;5018052;28;20049;-70
2022/07/28 11:47:23;;;;;;;2.30;0.20;;;23.90;94.90;;;;;;5010733;28;20195;-70
2022/07/28 11:50:12;;;;;;;1.80;0.15;;;23.90;93.20;;;;;;5025591;28;20045;-70
2022/07/28 11:52:39;;;;;;;1.85;0.10;;;24.00;91.20;;;;;;5020816;28;20044;-72
2022/07/28 11:55:07;;;;;;;3.60;0.30;;;23.70;92.90;;;;;;5023222;28;20128;-70
2022/07/28 11:57:40;;;;;;;2.50;0.13;;;23.60;93.40;;;;;;5020626;28;20045;-70
2022/07/28 12:00:06;;;;;;;2.53;0.20;;;23.40;94.20;;;;;;5027434;28;20037;-72
2022/07/28 12:02:34;;;;;;;1.95;0.20;;;23.20;95.00;;;;;;5021384;28;20090;-70
2022/07/28 12:05:06;;;;;;;3.40;0.10;;;23.10;95.20;;;;;;5009891;28;20045;-71
2022/07/28 12:07:37;;;;;;;1.48;0.30;;;23.40;94.00;;;;;;5022767;28;20045;-70
2022/07/28 12:10:22;;;;;;;1.77;0.10;;;23.50;92.60;;;;;;5024730;28;20052;-71
2022/07/28 12:12:51;;;;;;;4.40;0.20;;;23.30;93.40;;;;;;5028289;28;20060;-70
2022/07/28 12:15:18;;;;;;;1.15;0.13;;;23.00;93.50;;;;;;5021869;28;20875;-71
2022/07/28 12:17:45;;;;;;;1.85;0.20;;;23.00;92.90;;;;;;5020779;28;20602;-70
2022/07/28 12:20:12;;;;;;;0.82;0.10;;;23.30;91.80;;;;;;5010196;28;20122;-70
2022/07/28 12:22:38;;;;;;;1.40;0.20;;;22.70;92.20;;;;;;5021960;28;20392;-70
2022/07/28 12:25:04;;;;;;;2.20;0.10;;;22.50;91.80;;;;;;5009902;28;20049;-71
2022/07/28 12:27:29;;;;;;;1.75;0.20;;;22.50;93.80;;;;;;5027753;28;20045;-72
2022/07/28 12:29:59;;;;;;;0.90;0.10;;;22.60;93.00;;;;;;5027739;28;20041;-70
2022/07/28 12:32:34;;;;;;;2.15;0.20;;;22.60;94.30;;;;;;5017510;28;20044;-71
2022/07/28 12:35:00;;;;;;;3.92;0.20;;;22.10;93.90;;;;;;5010586;28;20057;-69
2022/07/28 12:37:27;;;;;;;1.77;0.10;;;21.80;93.90;;;;;;5015641;28;20084;-69
2022/07/28 12:39:53;;;;;;;1.88;0.20;;;21.60;95.00;;;;;;5025990;28;20052;-70
2022/07/28 12:42:19;;;;;;;3.22;0.20;;;21.20;95.50;;;;;;5030747;28;20045;-72
2022/07/28 12:44:47;;;;;;;1.92;0.10;;;21.10;98.00;;;;;;5034977;28;20080;-70
2022/07/28 12:47:14;;;;;;;2.13;0.10;;;20.80;99.70;;;;;;5018362;28;20434;-70
2022/07/28 12:49:43;;;;;;;1.17;0.10;;;20.80;99.90;;;;;;5032481;28;20052;-71
2022/07/28 12:52:18;;;;;;;2.33;0.20;;;21.10;99.50;;;;;;5034801;28;20053;-70
2022/07/28 12:54:44;;;;;;;1.48;0.17;;;21.50;98.90;;;;;;5034951;28;20492;-71
2022/07/28 12:57:10;;;;;;;2.35;0.20;;;21.50;99.50;;;;;;5016728;28;20722;-69